sensor_id;sensor_type;location;lat;lon;timestamp;pressure;altitude;pressure_sealevel;temperature;humidity
51715;BME280;39115;59.332;18.034;2023-02-17T00:02:11;100467.59;;;4.02;76.02
51715;BME280;39115;59.332;18.034;2023-02-17T00:04:32;100466.00;;;4.00;76.31
51715;BME280;39115;59.332;18.034;2023-02-17T00:06:52;100464.22;;;4.00;76.20
51715;BME280;39115;59.332;18.034;2023-02-17T00:09:13;100458.22;;;3.98;76.13
51715;BME280;39115;59.332;18.034;2023-02-17T00:11:33;100458.31;;;3.97;76.39
51715;BME280;39115;59.332;18.034;2023-02-17T00:13:54;100458.31;;;3.97;76.25
51715;BME280;39115;59.332;18.034;2023-02-17T00:16:20;100446.94;;;3.96;76.28
51715;BME280;39115;59.332;18.034;2023-02-17T00:18:41;100453.13;;;3.95;76.18
51715;BME280;39115;59.332;18.034;2023-02-17T00:21:17;100454.00;;;3.95;76.04
51715;BME280;39115;59.332;18.034;2023-02-17T00:23:38;100447.09;;;3.93;76.50
51715;BME280;39115;59.332;18.034;2023-02-17T00:25:59;100439.22;;;3.93;76.62
51715;BME280;39115;59.332;18.034;2023-02-17T00:28:19;100439.31;;;3.91;76.53
51715;BME280;39115;59.332;18.034;2023-02-17T00:30:40;100438.56;;;3.89;76.51
51715;BME280;39115;59.332;18.034;2023-02-17T00:33:00;100443.00;;;3.89;76.58
51715;BME280;39115;59.332;18.034;2023-02-17T00:35:21;100435.09;;;3.89;76.41
51715;BME280;39115;59.332;18.034;2023-02-17T00:37:41;100430.78;;;3.88;76.63
51715;BME280;39115;59.332;18.034;2023-02-17T00:40:05;100431.72;;;3.87;76.44
51715;BME280;39115;59.332;18.034;2023-02-17T00:42:26;100426.56;;;3.85;76.72
51715;BME280;39115;59.332;18.034;2023-02-17T00:44:46;100427.50;;;3.84;76.31
51715;BME280;39115;59.332;18.034;2023-02-17T00:47:07;100426.66;;;3.84;76.65
51715;BME280;39115;59.332;18.034;2023-02-17T00:49:27;100439.91;;;3.82;76.86
51715;BME280;39115;59.332;18.034;2023-02-17T00:51:48;100432.13;;;3.80;76.98
51715;BME280;39115;59.332;18.034;2023-02-17T00:54:09;100422.41;;;3.81;76.80
51715;BME280;39115;59.332;18.034;2023-02-17T00:56:29;100426.00;;;3.80;76.92
51715;BME280;39115;59.332;18.034;2023-02-17T00:58:50;100425.16;;;3.79;76.79
51715;BME280;39115;59.332;18.034;2023-02-17T01:01:11;100423.47;;;3.78;76.91
51715;BME280;39115;59.332;18.034;2023-02-17T01:03:31;100413.88;;;3.77;76.48
51715;BME280;39115;59.332;18.034;2023-02-17T01:05:53;100416.50;;;3.77;76.70
51715;BME280;39115;59.332;18.034;2023-02-17T01:08:15;100418.19;;;3.78;76.94
51715;BME280;39115;59.332;18.034;2023-02-17T01:10:37;100414.63;;;3.79;77.05
51715;BME280;39115;59.332;18.034;2023-02-17T01:12:58;100416.41;;;3.79;76.93
51715;BME280;39115;59.332;18.034;2023-02-17T01:15:18;100420.81;;;3.78;77.01
51715;BME280;39115;59.332;18.034;2023-02-17T01:17:39;100417.25;;;3.79;76.81
51715;BME280;39115;59.332;18.034;2023-02-17T01:19:59;100414.50;;;3.81;76.99
51715;BME280;39115;59.332;18.034;2023-02-17T01:22:20;100420.75;;;3.80;76.99
51715;BME280;39115;59.332;18.034;2023-02-17T01:24:40;100419.78;;;3.81;76.92
51715;BME280;39115;59.332;18.034;2023-02-17T01:27:01;100425.91;;;3.82;77.02
51715;BME280;39115;59.332;18.034;2023-02-17T01:29:21;100424.09;;;3.82;76.93
51715;BME280;39115;59.332;18.034;2023-02-17T01:31:42;100424.22;;;3.80;77.09
51715;BME280;39115;59.332;18.034;2023-02-17T01:34:03;100430.31;;;3.81;76.73
51715;BME280;39115;59.332;18.034;2023-02-17T01:36:24;100420.75;;;3.80;77.37
51715;BME280;39115;59.332;18.034;2023-02-17T01:38:45;100422.41;;;3.81;76.73
51715;BME280;39115;59.332;18.034;2023-02-17T01:41:07;100426.84;;;3.80;77.13
51715;BME280;39115;59.332;18.034;2023-02-17T01:43:28;100423.28;;;3.82;77.38
51715;BME280;39115;59.332;18.034;2023-02-17T01:46:00;100410.88;;;3.84;77.31
51715;BME280;39115;59.332;18.034;2023-02-17T01:51:04;100416.97;;;3.84;77.39
51715;BME280;39115;59.332;18.034;2023-02-17T01:53:31;100422.03;;;3.87;77.18
51715;BME280;39115;59.332;18.034;2023-02-17T01:55:54;100421.00;;;3.90;77.10
51715;BME280;39115;59.332;18.034;2023-02-17T01:58:18;100414.88;;;3.89;77.34
51715;BME280;39115;59.332;18.034;2023-02-17T02:00:40;100408.47;;;3.93;77.36
51715;BME280;39115;59.332;18.034;2023-02-17T02:03:03;100405.72;;;3.95;77.14
51715;BME280;39115;59.332;18.034;2023-02-17T02:05:25;100399.41;;;3.98;77.59
51715;BME280;39115;59.332;18.034;2023-02-17T02:07:47;100392.38;;;3.98;77.43
51715;BME280;39115;59.332;18.034;2023-02-17T02:10:11;100397.53;;;4.00;77.13
51715;BME280;39115;59.332;18.034;2023-02-17T02:12:35;100395.75;;;4.00;77.09
51715;BME280;39115;59.332;18.034;2023-02-17T02:15:04;100393.84;;;4.02;77.61
51715;BME280;39115;59.332;18.034;2023-02-17T02:25:28;100368.25;;;4.04;77.19
51715;BME280;39115;59.332;18.034;2023-02-17T02:28:12;100375.09;;;4.07;77.54
51715;BME280;39115;59.332;18.034;2023-02-17T02:33:24;100368.06;;;4.07;77.54
51715;BME280;39115;59.332;18.034;2023-02-17T02:36:02;100371.53;;;4.08;77.63
51715;BME280;39115;59.332;18.034;2023-02-17T02:38:30;100365.31;;;4.09;77.42
51715;BME280;39115;59.332;18.034;2023-02-17T02:41:04;100356.47;;;4.10;77.62
51715;BME280;39115;59.332;18.034;2023-02-17T02:43:29;100360.03;;;4.09;77.78
51715;BME280;39115;59.332;18.034;2023-02-17T02:45:49;100354.59;;;4.12;77.41
51715;BME280;39115;59.332;18.034;2023-02-17T02:48:10;100346.56;;;4.14;77.92
51715;BME280;39115;59.332;18.034;2023-02-17T02:58:37;100337.59;;;4.16;77.41
51715;BME280;39115;59.332;18.034;2023-02-17T03:01:06;100333.09;;;4.18;77.65
51715;BME280;39115;59.332;18.034;2023-02-17T03:06:11;100324.97;;;4.21;77.30
51715;BME280;39115;59.332;18.034;2023-02-17T03:08:40;100325.81;;;4.22;77.51
51715;BME280;39115;59.332;18.034;2023-02-17T03:11:03;100325.81;;;4.22;77.85
51715;BME280;39115;59.332;18.034;2023-02-17T03:13:23;100315.28;;;4.22;77.49
51715;BME280;39115;59.332;18.034;2023-02-17T03:15:45;100321.38;;;4.22;77.94
51715;BME280;39115;59.332;18.034;2023-02-17T03:18:06;100310.84;;;4.22;77.84
51715;BME280;39115;59.332;18.034;2023-02-17T03:20:30;100302.94;;;4.22;77.42
51715;BME280;39115;59.332;18.034;2023-02-17T03:22:52;100303.81;;;4.23;77.81
51715;BME280;39115;59.332;18.034;2023-02-17T03:25:14;100295.97;;;4.21;77.62
51715;BME280;39115;59.332;18.034;2023-02-17T03:27:34;100303.81;;;4.23;77.62
51715;BME280;39115;59.332;18.034;2023-02-17T03:29:55;100295.97;;;4.21;77.65
51715;BME280;39115;59.332;18.034;2023-02-17T03:32:15;100310.00;;;4.22;78.16
51715;BME280;39115;59.332;18.034;2023-02-17T03:34:36;100304.75;;;4.22;77.93
51715;BME280;39115;59.332;18.034;2023-02-17T03:36:56;100301.25;;;4.21;78.11
51715;BME280;39115;59.332;18.034;2023-02-17T03:39:17;100302.09;;;4.22;77.83
51715;BME280;39115;59.332;18.034;2023-02-17T03:41:38;100304.63;;;4.23;78.00
51715;BME280;39115;59.332;18.034;2023-02-17T03:43:58;100303.88;;;4.21;78.04
51715;BME280;39115;59.332;18.034;2023-02-17T03:46:19;100304.63;;;4.23;78.19
51715;BME280;39115;59.332;18.034;2023-02-17T03:48:39;100302.81;;;4.24;78.26
51715;BME280;39115;59.332;18.034;2023-02-17T03:51:21;100306.31;;;4.24;77.80
51715;BME280;39115;59.332;18.034;2023-02-17T03:53:43;100298.31;;;4.26;77.80
51715;BME280;39115;59.332;18.034;2023-02-17T03:56:04;100306.94;;;4.28;77.79
51715;BME280;39115;59.332;18.034;2023-02-17T03:58:24;100305.91;;;4.31;77.79
51715;BME280;39115;59.332;18.034;2023-02-17T04:00:45;100298.75;;;4.33;78.15
51715;BME280;39115;59.332;18.034;2023-02-17T04:03:05;100291.66;;;4.33;78.17
51715;BME280;39115;59.332;18.034;2023-02-17T04:05:26;100288.94;;;4.35;78.03
51715;BME280;39115;59.332;18.034;2023-02-17T04:07:46;100299.38;;;4.36;78.18
51715;BME280;39115;59.332;18.034;2023-02-17T04:10:07;100303.69;;;4.37;77.84
51715;BME280;39115;59.332;18.034;2023-02-17T04:12:28;100294.84;;;4.38;78.09
51715;BME280;39115;59.332;18.034;2023-02-17T04:14:48;100288.72;;;4.38;78.31
51715;BME280;39115;59.332;18.034;2023-02-17T04:17:08;100286.06;;;4.38;78.15
51715;BME280;39115;59.332;18.034;2023-02-17T04:19:29;100281.56;;;4.40;78.08
51715;BME280;39115;59.332;18.034;2023-02-17T04:21:49;100282.38;;;4.40;77.76
51715;BME280;39115;59.332;18.034;2023-02-17T04:24:10;100269.13;;;4.42;78.00
51715;BME280;39115;59.332;18.034;2023-02-17T04:26:30;100265.53;;;4.43;77.88
51715;BME280;39115;59.332;18.034;2023-02-17T04:28:51;100256.66;;;4.44;77.71
51715;BME280;39115;59.332;18.034;2023-02-17T04:31:11;100245.16;;;4.45;78.33
51715;BME280;39115;59.332;18.034;2023-02-17T04:33:32;100241.59;;;4.46;77.90
51715;BME280;39115;59.332;18.034;2023-02-17T04:35:53;100245.06;;;4.47;78.21
51715;BME280;39115;59.332;18.034;2023-02-17T04:38:18;100238.75;;;4.49;77.89
51715;BME280;39115;59.332;18.034;2023-02-17T04:40:39;100244.72;;;4.51;78.07
51715;BME280;39115;59.332;18.034;2023-02-17T04:42:59;100240.44;;;4.50;77.70
51715;BME280;39115;59.332;18.034;2023-02-17T04:45:21;100245.47;;;4.53;77.95
51715;BME280;39115;59.332;18.034;2023-02-17T04:47:42;100241.06;;;4.54;78.06
51715;BME280;39115;59.332;18.034;2023-02-17T04:50:03;100244.41;;;4.56;78.02
51715;BME280;39115;59.332;18.034;2023-02-17T04:52:24;100238.19;;;4.57;77.95
51715;BME280;39115;59.332;18.034;2023-02-17T04:54:45;100235.47;;;4.58;77.81
51715;BME280;39115;59.332;18.034;2023-02-17T04:57:05;100241.56;;;4.59;77.92
51715;BME280;39115;59.332;18.034;2023-02-17T04:59:26;100228.38;;;4.59;78.03
51715;BME280;39115;59.332;18.034;2023-02-17T05:01:46;100228.25;;;4.61;78.08
51715;BME280;39115;59.332;18.034;2023-02-17T05:04:07;100213.31;;;4.61;78.07
51715;BME280;39115;59.332;18.034;2023-02-17T05:06:27;100216.78;;;4.62;78.10
51715;BME280;39115;59.332;18.034;2023-02-17T05:08:48;100228.19;;;4.62;77.99
51715;BME280;39115;59.332;18.034;2023-02-17T05:11:09;100221.22;;;4.61;77.92
51715;BME280;39115;59.332;18.034;2023-02-17T05:13:30;100215.94;;;4.61;78.22
51715;BME280;39115;59.332;18.034;2023-02-17T05:15:52;100219.41;;;4.62;78.31
51715;BME280;39115;59.332;18.034;2023-02-17T05:18:13;100201.69;;;4.64;77.90
51715;BME280;39115;59.332;18.034;2023-02-17T05:20:34;100212.13;;;4.65;77.74
51715;BME280;39115;59.332;18.034;2023-02-17T05:22:54;100205.06;;;4.66;77.72
51715;BME280;39115;59.332;18.034;2023-02-17T05:25:14;100212.97;;;4.66;77.97
51715;BME280;39115;59.332;18.034;2023-02-17T05:27:35;100211.06;;;4.68;77.70
51715;BME280;39115;59.332;18.034;2023-02-17T05:29:56;100211.91;;;4.68;77.63
51715;BME280;39115;59.332;18.034;2023-02-17T05:32:17;100192.50;;;4.69;78.34
51715;BME280;39115;59.332;18.034;2023-02-17T05:34:38;100196.84;;;4.70;77.99
51715;BME280;39115;59.332;18.034;2023-02-17T05:36:58;100190.72;;;4.70;78.23
51715;BME280;39115;59.332;18.034;2023-02-17T05:39:19;100187.13;;;4.71;77.81
51715;BME280;39115;59.332;18.034;2023-02-17T05:41:39;100188.81;;;4.72;77.77
51715;BME280;39115;59.332;18.034;2023-02-17T05:44:00;100176.56;;;4.71;78.41
51715;BME280;39115;59.332;18.034;2023-02-17T05:46:20;100173.94;;;4.71;77.67
51715;BME280;39115;59.332;18.034;2023-02-17T05:48:42;100167.84;;;4.70;77.76
51715;BME280;39115;59.332;18.034;2023-02-17T05:51:04;100161.69;;;4.70;78.20
51715;BME280;39115;59.332;18.034;2023-02-17T05:53:24;100162.56;;;4.70;78.08
51715;BME280;39115;59.332;18.034;2023-02-17T05:55:45;100157.28;;;4.70;77.94
51715;BME280;39115;59.332;18.034;2023-02-17T05:58:06;100162.66;;;4.69;78.18
51715;BME280;39115;59.332;18.034;2023-02-17T06:00:26;100163.38;;;4.71;77.85
51715;BME280;39115;59.332;18.034;2023-02-17T06:02:47;100166.84;;;4.71;78.17
51715;BME280;39115;59.332;18.034;2023-02-17T06:05:08;100156.31;;;4.71;78.25
51715;BME280;39115;59.332;18.034;2023-02-17T06:07:28;100158.94;;;4.71;77.92
51715;BME280;39115;59.332;18.034;2023-02-17T06:09:49;100157.16;;;4.72;77.91
51715;BME280;39115;59.332;18.034;2023-02-17T06:12:09;100149.13;;;4.73;77.70
51715;BME280;39115;59.332;18.034;2023-02-17T06:14:30;100143.75;;;4.75;77.59
51715;BME280;39115;59.332;18.034;2023-02-17T06:16:50;100145.56;;;4.74;77.66
51715;BME280;39115;59.332;18.034;2023-02-17T06:19:11;100144.59;;;4.75;78.13
51715;BME280;39115;59.332;18.034;2023-02-17T06:21:31;100145.44;;;4.76;77.46
51715;BME280;39115;59.332;18.034;2023-02-17T06:23:52;100139.31;;;4.75;78.18
51715;BME280;39115;59.332;18.034;2023-02-17T06:26:13;100132.16;;;4.78;77.70
51715;BME280;39115;59.332;18.034;2023-02-17T06:28:33;100140.91;;;4.78;77.61
51715;BME280;39115;59.332;18.034;2023-02-17T06:30:54;100138.25;;;4.78;77.47
51715;BME280;39115;59.332;18.034;2023-02-17T06:33:14;100126.75;;;4.79;77.42
51715;BME280;39115;59.332;18.034;2023-02-17T06:35:35;100124.84;;;4.81;77.47
51715;BME280;39115;59.332;18.034;2023-02-17T06:37:55;100122.94;;;4.83;77.41
51715;BME280;39115;59.332;18.034;2023-02-17T06:40:16;100118.38;;;4.85;77.57
51715;BME280;39115;59.332;18.034;2023-02-17T06:42:37;100121.88;;;4.86;77.62
51715;BME280;39115;59.332;18.034;2023-02-17T06:44:58;100119.25;;;4.86;77.35
51715;BME280;39115;59.332;18.034;2023-02-17T06:47:20;100116.63;;;4.86;77.45
51715;BME280;39115;59.332;18.034;2023-02-17T06:49:40;100113.00;;;4.87;77.32
51715;BME280;39115;59.332;18.034;2023-02-17T06:52:01;100100.66;;;4.87;77.64
51715;BME280;39115;59.332;18.034;2023-02-17T06:54:21;100105.81;;;4.89;77.79
51715;BME280;39115;59.332;18.034;2023-02-17T06:56:42;100101.50;;;4.88;77.37
51715;BME280;39115;59.332;18.034;2023-02-17T06:59:03;100102.22;;;4.90;77.85
51715;BME280;39115;59.332;18.034;2023-02-17T07:01:26;100100.53;;;4.89;77.62
51715;BME280;39115;59.332;18.034;2023-02-17T07:03:47;100094.31;;;4.90;77.50
51715;BME280;39115;59.332;18.034;2023-02-17T07:06:07;100087.34;;;4.89;77.42
51715;BME280;39115;59.332;18.034;2023-02-17T07:08:28;100081.25;;;4.88;77.27
51715;BME280;39115;59.332;18.034;2023-02-17T07:10:48;100083.88;;;4.88;77.41
51715;BME280;39115;59.332;18.034;2023-02-17T07:13:09;100083.75;;;4.90;77.53
51715;BME280;39115;59.332;18.034;2023-02-17T07:15:29;100081.97;;;4.90;77.75
51715;BME280;39115;59.332;18.034;2023-02-17T07:17:50;100080.19;;;4.91;77.54
51715;BME280;39115;59.332;18.034;2023-02-17T07:20:10;100079.22;;;4.92;77.39
51715;BME280;39115;59.332;18.034;2023-02-17T07:22:31;100068.56;;;4.94;77.44
51715;BME280;39115;59.332;18.034;2023-02-17T07:24:51;100061.38;;;4.96;77.21
51715;BME280;39115;59.332;18.034;2023-02-17T07:27:12;100060.41;;;4.97;77.78
51715;BME280;39115;59.332;18.034;2023-02-17T07:29:33;100052.38;;;4.98;77.63
51715;BME280;39115;59.332;18.034;2023-02-17T07:31:54;100045.28;;;4.99;77.00
51715;BME280;39115;59.332;18.034;2023-02-17T07:34:14;100041.63;;;5.01;77.52
51715;BME280;39115;59.332;18.034;2023-02-17T07:36:35;100039.81;;;5.02;77.05
51715;BME280;39115;59.332;18.034;2023-02-17T07:38:55;100036.22;;;5.03;76.88
51715;BME280;39115;59.332;18.034;2023-02-17T07:41:18;100024.56;;;5.05;76.98
51715;BME280;39115;59.332;18.034;2023-02-17T07:43:39;100023.50;;;5.08;76.61
51715;BME280;39115;59.332;18.034;2023-02-17T07:46:00;100013.81;;;5.09;77.26
51715;BME280;39115;59.332;18.034;2023-02-17T07:48:20;100014.50;;;5.11;76.80
51715;BME280;39115;59.332;18.034;2023-02-17T07:50:41;100009.13;;;5.12;76.64
51715;BME280;39115;59.332;18.034;2023-02-17T07:53:01;100001.09;;;5.14;76.45
51715;BME280;39115;59.332;18.034;2023-02-17T07:55:22;99993.91;;;5.16;77.12
51715;BME280;39115;59.332;18.034;2023-02-17T07:57:43;99991.88;;;5.19;76.60
51715;BME280;39115;59.332;18.034;2023-02-17T08:00:04;99986.47;;;5.21;76.32
51715;BME280;39115;59.332;18.034;2023-02-17T08:02:25;99967.78;;;5.24;76.48
51715;BME280;39115;59.332;18.034;2023-02-17T08:04:46;99970.75;;;5.31;76.05
51715;BME280;39115;59.332;18.034;2023-02-17T08:07:06;99959.84;;;5.35;76.13
51715;BME280;39115;59.332;18.034;2023-02-17T08:09:27;99953.38;;;5.40;75.87
51715;BME280;39115;59.332;18.034;2023-02-17T08:12:15;99946.88;;;5.44;75.56
51715;BME280;39115;59.332;18.034;2023-02-17T08:14:56;99934.28;;;5.47;76.30
51715;BME280;39115;59.332;18.034;2023-02-17T08:17:17;99942.66;;;5.52;75.89
51715;BME280;39115;59.332;18.034;2023-02-17T08:19:37;99943.25;;;5.56;75.89
51715;BME280;39115;59.332;18.034;2023-02-17T08:21:58;99938.84;;;5.57;75.47
51715;BME280;39115;59.332;18.034;2023-02-17T08:24:19;99938.59;;;5.60;75.57
51715;BME280;39115;59.332;18.034;2023-02-17T08:26:41;99939.28;;;5.62;75.52
51715;BME280;39115;59.332;18.034;2023-02-17T08:29:02;99940.03;;;5.64;75.33
51715;BME280;39115;59.332;18.034;2023-02-17T08:31:33;99929.31;;;5.65;75.43
51715;BME280;39115;59.332;18.034;2023-02-17T08:33:54;99936.16;;;5.68;75.56
51715;BME280;39115;59.332;18.034;2023-02-17T08:36:16;99933.41;;;5.69;75.56
51715;BME280;39115;59.332;18.034;2023-02-17T08:38:37;99934.25;;;5.70;75.02
51715;BME280;39115;59.332;18.034;2023-02-17T08:40:58;99934.25;;;5.70;75.35
51715;BME280;39115;59.332;18.034;2023-02-17T08:43:19;99930.50;;;5.73;75.12
51715;BME280;39115;59.332;18.034;2023-02-17T08:45:39;99931.25;;;5.75;74.72
51715;BME280;39115;59.332;18.034;2023-02-17T08:48:00;99923.31;;;5.75;74.84
51715;BME280;39115;59.332;18.034;2023-02-17T08:50:20;99917.78;;;5.78;74.59
51715;BME280;39115;59.332;18.034;2023-02-17T08:52:42;99922.72;;;5.82;74.80
51715;BME280;39115;59.332;18.034;2023-02-17T08:55:03;99918.84;;;5.86;74.94
51715;BME280;39115;59.332;18.034;2023-02-17T08:57:24;99911.50;;;5.90;74.71
51715;BME280;39115;59.332;18.034;2023-02-17T08:59:45;99899.59;;;5.96;74.32
51715;BME280;39115;59.332;18.034;2023-02-17T09:02:09;99889.28;;;6.04;74.15
51715;BME280;39115;59.332;18.034;2023-02-17T09:04:30;99876.28;;;6.12;74.13
51715;BME280;39115;59.332;18.034;2023-02-17T09:06:52;99872.59;;;6.25;74.24
51715;BME280;39115;59.332;18.034;2023-02-17T09:09:18;99869.19;;;6.34;73.93
51715;BME280;39115;59.332;18.034;2023-02-17T09:11:42;99869.38;;;6.42;73.83
51715;BME280;39115;59.332;18.034;2023-02-17T09:14:03;99869.72;;;6.49;73.50
51715;BME280;39115;59.332;18.034;2023-02-17T09:16:24;99868.63;;;6.52;73.64
51715;BME280;39115;59.332;18.034;2023-02-17T09:18:44;99861.25;;;6.55;73.67
51715;BME280;39115;59.332;18.034;2023-02-17T09:21:10;99855.84;;;6.57;73.07
51715;BME280;39115;59.332;18.034;2023-02-17T09:23:30;99854.72;;;6.59;73.41
51715;BME280;39115;59.332;18.034;2023-02-17T09:26:00;99841.41;;;6.61;73.23
51715;BME280;39115;59.332;18.034;2023-02-17T09:28:21;99843.91;;;6.62;73.26
51715;BME280;39115;59.332;18.034;2023-02-17T09:30:42;99830.41;;;6.65;72.89
51715;BME280;39115;59.332;18.034;2023-02-17T09:33:02;99821.50;;;6.67;72.68
51715;BME280;39115;59.332;18.034;2023-02-17T09:35:25;99817.19;;;6.65;72.92
51715;BME280;39115;59.332;18.034;2023-02-17T09:37:45;99808.28;;;6.67;72.70
51715;BME280;39115;59.332;18.034;2023-02-17T09:40:07;99802.03;;;6.68;72.67
51715;BME280;39115;59.332;18.034;2023-02-17T09:42:28;99799.13;;;6.71;72.25
51715;BME280;39115;59.332;18.034;2023-02-17T09:45:14;99783.81;;;6.74;72.13
51715;BME280;39115;59.332;18.034;2023-02-17T09:47:41;99782.72;;;6.77;72.11
51715;BME280;39115;59.332;18.034;2023-02-17T09:50:14;99779.09;;;6.78;71.95
51715;BME280;39115;59.332;18.034;2023-02-17T09:52:46;99767.56;;;6.79;72.19
51715;BME280;39115;59.332;18.034;2023-02-17T09:55:21;99758.50;;;6.82;71.79
51715;BME280;39115;59.332;18.034;2023-02-17T09:57:54;99745.00;;;6.85;72.11
51715;BME280;39115;59.332;18.034;2023-02-17T10:00:24;99733.34;;;6.87;71.80
51715;BME280;39115;59.332;18.034;2023-02-17T10:05:50;99712.59;;;6.92;71.67
51715;BME280;39115;59.332;18.034;2023-02-17T10:08:18;99698.53;;;6.92;71.83
51715;BME280;39115;59.332;18.034;2023-02-17T10:11:10;99693.50;;;6.89;71.78
51715;BME280;39115;59.332;18.034;2023-02-17T10:13:33;99684.03;;;6.86;71.51
51715;BME280;39115;59.332;18.034;2023-02-17T10:15:59;99675.41;;;6.84;71.49
51715;BME280;39115;59.332;18.034;2023-02-17T10:18:34;99673.88;;;6.82;71.35
51715;BME280;39115;59.332;18.034;2023-02-17T10:23:38;99665.63;;;6.75;71.51
51715;BME280;39115;59.332;18.034;2023-02-17T10:37:00;99620.81;;;6.63;71.32
51715;BME280;39115;59.332;18.034;2023-02-17T10:42:33;99601.72;;;6.60;71.27
51715;BME280;39115;59.332;18.034;2023-02-17T10:45:05;99593.91;;;6.58;71.43
51715;BME280;39115;59.332;18.034;2023-02-17T10:47:27;99589.47;;;6.59;71.37
51715;BME280;39115;59.332;18.034;2023-02-17T10:49:50;99576.25;;;6.59;71.05
51715;BME280;39115;59.332;18.034;2023-02-17T10:52:18;99560.38;;;6.59;71.08
51715;BME280;39115;59.332;18.034;2023-02-17T10:55:02;99554.25;;;6.58;70.87
51715;BME280;39115;59.332;18.034;2023-02-17T10:57:27;99532.41;;;6.56;70.81
51715;BME280;39115;59.332;18.034;2023-02-17T10:59:51;99527.53;;;6.61;70.84
51715;BME280;39115;59.332;18.034;2023-02-17T11:02:27;99525.59;;;6.63;70.67
51715;BME280;39115;59.332;18.034;2023-02-17T11:04:52;99509.59;;;6.65;70.55
51715;BME280;39115;59.332;18.034;2023-02-17T11:07:36;99502.22;;;6.69;70.86
51715;BME280;39115;59.332;18.034;2023-02-17T11:10:00;99496.09;;;6.68;70.86
51715;BME280;39115;59.332;18.034;2023-02-17T11:12:27;99482.56;;;6.71;70.87
51715;BME280;39115;59.332;18.034;2023-02-17T11:14:51;99481.47;;;6.74;70.07
51715;BME280;39115;59.332;18.034;2023-02-17T11:17:55;99469.63;;;6.78;70.57
51715;BME280;39115;59.332;18.034;2023-02-17T11:20:34;99459.75;;;6.80;70.37
51715;BME280;39115;59.332;18.034;2023-02-17T11:23:02;99452.78;;;6.79;70.32
51715;BME280;39115;59.332;18.034;2023-02-17T11:25:26;99437.19;;;6.76;70.02
51715;BME280;39115;59.332;18.034;2023-02-17T11:27:51;99434.00;;;6.72;70.50
51715;BME280;39115;59.332;18.034;2023-02-17T11:30:14;99420.22;;;6.69;70.13
51715;BME280;39115;59.332;18.034;2023-02-17T11:32:35;99421.78;;;6.61;70.32
51715;BME280;39115;59.332;18.034;2023-02-17T11:34:57;99412.31;;;6.59;70.05
51715;BME280;39115;59.332;18.034;2023-02-17T11:37:22;99405.50;;;6.56;69.92
51715;BME280;39115;59.332;18.034;2023-02-17T11:39:46;99404.97;;;6.53;70.23
51715;BME280;39115;59.332;18.034;2023-02-17T11:42:33;99397.28;;;6.49;70.17
51715;BME280;39115;59.332;18.034;2023-02-17T11:45:00;99393.41;;;6.44;69.85
51715;BME280;39115;59.332;18.034;2023-02-17T12:09:37;99321.09;;;6.15;69.98
51715;BME280;39115;59.332;18.034;2023-02-17T12:17:25;99288.16;;;6.00;70.24
51715;BME280;39115;59.332;18.034;2023-02-17T12:28:25;99239.22;;;5.76;70.77
51715;BME280;39115;59.332;18.034;2023-02-17T12:31:02;99226.59;;;5.70;70.33
51715;BME280;39115;59.332;18.034;2023-02-17T12:35:54;99224.78;;;5.61;70.47
51715;BME280;39115;59.332;18.034;2023-02-17T12:38:18;99201.34;;;5.58;70.12
51715;BME280;39115;59.332;18.034;2023-02-17T12:40:59;99198.13;;;5.54;70.31
51715;BME280;39115;59.332;18.034;2023-02-17T12:43:29;99181.88;;;5.49;70.48
51715;BME280;39115;59.332;18.034;2023-02-17T12:45:53;99176.59;;;5.49;70.32
51715;BME280;39115;59.332;18.034;2023-02-17T12:51:21;99156.03;;;5.43;70.70
51715;BME280;39115;59.332;18.034;2023-02-17T12:53:50;99139.50;;;5.41;70.56
51715;BME280;39115;59.332;18.034;2023-02-17T12:59:18;99118.69;;;5.37;70.48
51715;BME280;39115;59.332;18.034;2023-02-17T13:01:48;99109.94;;;5.37;70.93
51715;BME280;39115;59.332;18.034;2023-02-17T13:04:16;99097.03;;;5.34;70.88
51715;BME280;39115;59.332;18.034;2023-02-17T13:06:41;99098.00;;;5.33;70.53
51715;BME280;39115;59.332;18.034;2023-02-17T13:09:36;99089.53;;;5.29;70.94
51715;BME280;39115;59.332;18.034;2023-02-17T13:12:29;99089.81;;;5.26;71.08
51715;BME280;39115;59.332;18.034;2023-02-17T13:14:55;99069.13;;;5.21;71.47
51715;BME280;39115;59.332;18.034;2023-02-17T13:17:31;99053.16;;;5.13;71.10
51715;BME280;39115;59.332;18.034;2023-02-17T13:22:30;99031.97;;;5.05;71.89
51715;BME280;39115;59.332;18.034;2023-02-17T13:24:53;99012.97;;;5.01;71.96
51715;BME280;39115;59.332;18.034;2023-02-17T13:32:27;98985.63;;;4.93;72.09
51715;BME280;39115;59.332;18.034;2023-02-17T13:34:58;98973.56;;;4.90;72.14
51715;BME280;39115;59.332;18.034;2023-02-17T13:39:52;98954.00;;;4.83;72.80
51715;BME280;39115;59.332;18.034;2023-02-17T13:44:56;98931.81;;;4.75;73.24
51715;BME280;39115;59.332;18.034;2023-02-17T13:47:24;98911.84;;;4.73;73.29
51715;BME280;39115;59.332;18.034;2023-02-17T13:49:55;98898.78;;;4.71;73.20
51715;BME280;39115;59.332;18.034;2023-02-17T13:52:18;98898.13;;;4.69;73.65
51715;BME280;39115;59.332;18.034;2023-02-17T13:54:56;98875.78;;;4.64;73.22
51715;BME280;39115;59.332;18.034;2023-02-17T13:57:27;98862.88;;;4.61;73.68
51715;BME280;39115;59.332;18.034;2023-02-17T13:59:48;98852.66;;;4.57;73.42
51715;BME280;39115;59.332;18.034;2023-02-17T14:02:17;98829.91;;;4.56;73.40
51715;BME280;39115;59.332;18.034;2023-02-17T14:04:39;98822.97;;;4.55;74.29
51715;BME280;39115;59.332;18.034;2023-02-17T14:07:02;98811.56;;;4.55;73.89
51715;BME280;39115;59.332;18.034;2023-02-17T14:09:32;98802.03;;;4.54;74.05
51715;BME280;39115;59.332;18.034;2023-02-17T14:11:54;98795.91;;;4.53;74.28
51715;BME280;39115;59.332;18.034;2023-02-17T14:14:15;98788.16;;;4.52;73.80
51715;BME280;39115;59.332;18.034;2023-02-17T14:16:38;98776.66;;;4.53;74.19
51715;BME280;39115;59.332;18.034;2023-02-17T14:21:25;98755.69;;;4.51;74.13